Time;durP1;ratioP1;P1;durP2;ratioP2;P2;SDS_P1;SDS_P2;PMS_P1;PMS_P2;Temp;Humidity;BMP_temperature;BMP_pressure;BME280_temperature;BME280_humidity;BME280_pressure;Samples;Min_cycle;Max_cycle;Signal;HPM_P1;HPM_P2
2022/01/12 00:01:01;;;;;;;11.25;5.13;;;-5.30;70.00;;;;;;5036817;28;20032;-42
2022/01/12 00:03:27;;;;;;;9.63;5.25;;;-5.30;70.10;;;;;;5037284;28;20078;-37
2022/01/12 00:05:53;;;;;;;7.25;4.75;;;-5.30;70.20;;;;;;5036547;28;20360;-39
2022/01/12 00:08:18;;;;;;;12.00;5.13;;;-5.40;69.90;;;;;;5036928;28;20025;-43
2022/01/12 00:10:44;;;;;;;10.05;4.78;;;-5.40;70.00;;;;;;5036885;28;20119;-38
2022/01/12 00:13:10;;;;;;;9.40;5.35;;;-5.40;70.10;;;;;;5036880;28;20438;-43
2022/01/12 00:15:36;;;;;;;10.50;5.40;;;-5.40;70.10;;;;;;5036493;28;20061;-43
2022/01/12 00:18:02;;;;;;;7.93;4.57;;;-5.40;70.00;;;;;;5036587;28;20036;-43
2022/01/12 00:20:28;;;;;;;10.15;4.22;;;-5.40;69.90;;;;;;5036857;28;20036;-43
2022/01/12 00:22:53;;;;;;;10.13;4.70;;;-5.40;70.00;;;;;;5036649;28;20029;-43
2022/01/12 00:33:16;;;;;;;10.73;4.97;;;-5.60;69.90;;;;;;5036588;28;20044;-42
2022/01/12 00:35:47;;;;;;;9.70;4.72;;;-5.60;70.10;;;;;;5036431;28;20065;-38
2022/01/12 00:38:13;;;;;;;;;;;-5.60;70.30;;;;;;5036981;28;20349;-43
2022/01/12 00:40:42;;;;;;;8.40;4.53;;;-5.60;70.40;;;;;;5036108;28;19959;-36
2022/01/12 00:43:09;;;;;;;10.32;5.70;;;-5.60;70.10;;;;;;5036560;28;20306;-43
2022/01/12 00:45:37;;;;;;;10.93;5.03;;;-5.60;70.10;;;;;;5036450;28;20365;-43
2022/01/12 00:48:04;;;;;;;12.52;5.88;;;-5.60;70.40;;;;;;5036130;28;20120;-39
2022/01/12 00:50:30;;;;;;;9.82;5.10;;;-5.60;70.50;;;;;;5035807;28;20442;-38
2022/01/12 00:52:55;;;;;;;10.00;4.93;;;-5.60;70.30;;;;;;5036228;28;20022;-38
2022/01/12 00:55:21;;;;;;;11.68;5.68;;;-5.60;70.20;;;;;;5036364;28;20044;-40
2022/01/12 00:57:48;;;;;;;12.00;5.30;;;-5.60;70.30;;;;;;5036332;28;20400;-43
2022/01/12 01:00:14;;;;;;;10.18;5.30;;;-5.60;70.30;;;;;;5036004;28;20095;-42
2022/01/12 01:02:40;;;;;;;7.57;4.28;;;-5.60;70.00;;;;;;5035403;28;20369;-40
2022/01/12 01:05:06;;;;;;;9.15;4.82;;;-5.60;69.80;;;;;;5036006;28;20425;-42
2022/01/12 01:07:32;;;;;;;10.05;5.00;;;-5.70;69.40;;;;;;5035821;28;20036;-42
2022/01/12 01:10:06;;;;;;;12.20;6.10;;;-5.80;69.50;;;;;;5036041;28;20060;-42
2022/01/12 01:12:34;;;;;;;8.85;4.93;;;-5.90;69.70;;;;;;5036179;28;20033;-39
2022/01/12 01:15:07;;;;;;;8.52;4.60;;;-5.90;70.00;;;;;;5036013;28;20356;-43
2022/01/12 01:25:42;;;;;;;11.45;4.90;;;-6.00;70.00;;;;;;5035854;28;20092;-44
2022/01/12 01:28:08;;;;;;;9.80;5.35;;;-6.00;70.20;;;;;;5036117;28;20355;-38
2022/01/12 01:30:36;;;;;;;10.52;5.50;;;-6.00;70.10;;;;;;5036105;28;20068;-45
2022/01/12 01:33:07;;;;;;;10.80;5.75;;;-6.00;70.00;;;;;;5035995;28;20048;-45
2022/01/12 01:35:36;;;;;;;11.02;5.07;;;-6.10;69.90;;;;;;5035989;28;20139;-45
2022/01/12 01:38:03;;;;;;;11.02;6.00;;;-6.10;70.10;;;;;;5035717;28;20033;-45
2022/01/12 01:40:32;;;;;;;8.43;4.88;;;-6.00;70.40;;;;;;5035749;28;20036;-45
2022/01/12 01:53:47;;;;;;;8.55;4.63;;;-6.00;69.90;;;;;;5035937;28;20039;-43
2022/01/12 01:56:13;;;;;;;11.38;5.18;;;-6.10;70.00;;;;;;5035416;28;20120;-43
2022/01/12 01:58:40;;;;;;;10.30;5.45;;;-6.10;70.00;;;;;;5035539;28;20376;-39
2022/01/12 02:01:06;;;;;;;9.05;5.30;;;-6.10;69.80;;;;;;5035013;28;20129;-38
2022/01/12 02:03:32;;;;;;;12.75;5.40;;;-6.20;69.60;;;;;;5035633;28;20032;-43
2022/01/12 02:06:01;;;;;;;10.32;4.85;;;-6.20;69.90;;;;;;5035500;28;20033;-39
2022/01/12 02:08:27;;;;;;;12.90;5.50;;;-6.20;70.00;;;;;;5035613;28;20367;-43
2022/01/12 02:10:58;;;;;;;14.40;5.43;;;-6.30;69.70;;;;;;5035184;28;20075;-43
2022/01/12 02:13:24;;;;;;;;;;;-6.30;69.50;;;;;;5038068;28;20479;-38
2022/01/12 02:15:51;;;;;;;10.18;4.95;;;-6.40;69.60;;;;;;5038666;28;20306;-36
2022/01/12 02:35:20;;;;;;;7.03;4.07;;;-6.60;69.60;;;;;;5038973;28;20410;-43
2022/01/12 02:40:34;;;;;;;9.38;4.53;;;-6.60;69.60;;;;;;5038856;28;20028;-42
2022/01/12 02:53:52;;;;;;;12.18;5.18;;;-6.70;68.50;;;;;;5037532;28;20095;-43
2022/01/12 02:56:20;;;;;;;9.30;4.88;;;-6.70;68.40;;;;;;5038130;28;20048;-37
2022/01/12 02:58:48;;;;;;;10.27;4.78;;;-6.80;68.40;;;;;;5038630;28;20025;-43
2022/01/12 03:03:56;;;;;;;7.17;4.03;;;-6.90;68.30;;;;;;5038559;28;20437;-43
2022/01/12 03:06:27;;;;;;;10.40;4.97;;;-6.90;68.30;;;;;;5037994;28;20250;-43
2022/01/12 03:08:53;;;;;;;9.32;5.05;;;-6.90;68.50;;;;;;5038422;28;20037;-43
2022/01/12 03:11:21;;;;;;;15.02;5.47;;;-6.90;68.60;;;;;;5038157;28;20029;-43
2022/01/12 03:13:48;;;;;;;11.10;4.80;;;-6.90;68.30;;;;;;5038308;28;20139;-42
2022/01/12 03:16:16;;;;;;;9.02;4.47;;;-7.00;68.30;;;;;;5037601;28;20029;-43
2022/01/12 03:18:43;;;;;;;10.05;4.28;;;-6.90;68.40;;;;;;5038118;28;20049;-43
2022/01/12 03:21:10;;;;;;;8.35;5.10;;;-6.90;68.50;;;;;;5037826;28;20034;-43
2022/01/12 03:23:36;;;;;;;11.68;5.07;;;-7.00;68.10;;;;;;5037979;28;20064;-43
2022/01/12 03:26:02;;;;;;;8.23;4.40;;;-7.00;68.30;;;;;;5036831;28;20066;-35
2022/01/12 03:28:28;;;;;;;9.00;4.68;;;-7.00;68.10;;;;;;5037603;28;20108;-42
2022/01/12 03:31:05;;;;;;;10.30;3.97;;;-7.10;68.10;;;;;;5037686;28;20064;-43
2022/01/12 03:38:37;;;;;;;9.00;4.38;;;-7.10;68.40;;;;;;5037775;28;20029;-43
2022/01/12 03:41:03;;;;;;;8.48;4.82;;;-7.20;68.40;;;;;;5037407;28;20021;-38
2022/01/12 03:43:29;;;;;;;9.50;4.82;;;-7.10;68.70;;;;;;5037716;28;20406;-39
2022/01/12 03:45:54;;;;;;;9.73;4.40;;;-7.20;68.40;;;;;;5037406;28;20082;-36
2022/01/12 03:48:20;;;;;;;10.65;4.15;;;-7.20;68.60;;;;;;5037089;28;20393;-43
2022/01/12 03:50:48;;;;;;;10.30;4.97;;;-7.10;68.80;;;;;;5037121;28;20047;-38
2022/01/12 03:53:13;;;;;;;8.82;4.07;;;-7.10;68.70;;;;;;5037380;28;20378;-43
2022/01/12 03:55:40;;;;;;;12.88;5.40;;;-7.10;69.20;;;;;;5037013;28;20106;-35
2022/01/12 03:58:06;;;;;;;13.82;6.50;;;-7.10;68.40;;;;;;5037377;28;20025;-37
2022/01/12 04:00:31;;;;;;;14.90;6.32;;;-7.10;68.30;;;;;;5037405;28;20109;-38
2022/01/12 04:02:57;;;;;;;10.02;4.68;;;-7.10;68.40;;;;;;5036989;28;20026;-37
2022/01/12 04:10:38;;;;;;;7.80;4.18;;;-7.20;68.10;;;;;;5036853;28;20083;-34
2022/01/12 04:13:04;;;;;;;14.18;4.85;;;-7.20;67.90;;;;;;5037116;28;20033;-38
2022/01/12 04:15:30;;;;;;;9.93;4.60;;;-7.20;67.40;;;;;;5037039;28;20045;-43
2022/01/12 04:17:56;;;;;;;10.48;4.35;;;-7.30;67.30;;;;;;5036916;28;20033;-43
2022/01/12 04:20:21;;;;;;;8.27;4.32;;;-7.30;67.30;;;;;;5037126;28;20152;-35
2022/01/12 04:25:31;;;;;;;11.25;4.90;;;-7.40;67.40;;;;;;5036913;28;20476;-40
2022/01/12 04:27:57;;;;;;;9.60;4.97;;;-7.50;67.00;;;;;;5036381;28;20033;-39
2022/01/12 04:30:23;;;;;;;10.27;4.95;;;-7.60;67.10;;;;;;5036703;28;20075;-39
2022/01/12 04:32:49;;;;;;;10.02;3.85;;;-7.60;67.20;;;;;;5036491;28;20102;-43
2022/01/12 04:35:16;;;;;;;8.30;4.35;;;-7.70;67.00;;;;;;5036608;28;20033;-38
2022/01/12 04:37:42;;;;;;;9.40;4.03;;;-7.70;66.90;;;;;;5036591;28;20030;-45
2022/01/12 04:40:08;;;;;;;10.63;4.82;;;-7.80;66.60;;;;;;5036015;28;20497;-41
2022/01/12 04:42:35;;;;;;;12.10;5.38;;;-7.90;66.60;;;;;;5036659;28;20059;-43
2022/01/12 04:45:16;;;;;;;11.90;5.30;;;-8.00;66.80;;;;;;5036467;28;20365;-40
2022/01/12 04:50:24;;;;;;;8.63;4.30;;;-8.00;67.30;;;;;;5035753;28;20135;-35
2022/01/12 04:52:49;;;;;;;8.63;4.80;;;-8.10;67.10;;;;;;5036533;28;20426;-43
2022/01/12 04:55:15;;;;;;;13.63;4.78;;;-8.20;66.90;;;;;;5036328;28;20091;-38
2022/01/12 04:57:42;;;;;;;9.85;4.57;;;-8.30;66.70;;;;;;5036252;28;20065;-41
2022/01/12 05:00:15;;;;;;;10.60;4.80;;;-8.30;66.80;;;;;;5036149;28;20030;-39
2022/01/12 05:13:32;;;;;;;39.78;12.38;;;-8.50;66.90;;;;;;5036167;28;20040;-36
2022/01/12 05:16:00;;;;;;;48.65;15.52;;;-8.60;66.50;;;;;;5035633;28;20034;-37
2022/01/12 05:18:26;;;;;;;8.27;4.18;;;-8.70;66.40;;;;;;5035982;28;20034;-39
2022/01/12 05:20:52;;;;;;;13.23;5.18;;;-8.70;66.40;;;;;;5035530;28;20140;-35
2022/01/12 05:23:17;;;;;;;26.58;10.55;;;-8.80;66.40;;;;;;5035945;28;20409;-43
2022/01/12 05:25:46;;;;;;;15.68;6.60;;;-8.80;66.70;;;;;;5035818;28;20060;-39
2022/01/12 05:28:16;;;;;;;18.10;6.70;;;-8.80;67.30;;;;;;5035331;28;20033;-43
2022/01/12 05:30:41;;;;;;;16.13;5.90;;;-8.80;67.50;;;;;;5035964;28;20303;-43
2022/01/12 05:33:07;;;;;;;21.80;4.85;;;-8.80;67.80;;;;;;5035627;28;20049;-43
2022/01/12 05:35:34;;;;;;;11.80;5.30;;;-8.70;67.70;;;;;;5035776;28;20025;-39
2022/01/12 05:38:02;;;;;;;9.13;4.90;;;-8.60;67.60;;;;;;5035554;28;20487;-38
2022/01/12 05:40:28;;;;;;;9.82;4.60;;;-8.60;67.60;;;;;;5035482;28;20025;-43
2022/01/12 05:42:55;;;;;;;11.02;5.57;;;-8.50;67.60;;;;;;5035542;28;20091;-43
2022/01/12 05:45:22;;;;;;;11.52;4.97;;;-8.50;67.30;;;;;;5035451;28;20088;-40
2022/01/12 05:50:16;;;;;;;9.43;4.50;;;-8.40;67.30;;;;;;5038940;28;20087;-41
2022/01/12 05:52:42;;;;;;;14.43;6.45;;;-8.40;67.00;;;;;;5039392;28;20053;-39
2022/01/12 05:55:09;;;;;;;13.63;7.28;;;-8.40;67.00;;;;;;5039548;28;20072;-43
2022/01/12 05:57:36;;;;;;;11.50;5.72;;;-8.30;67.10;;;;;;5039420;28;20116;-39
2022/01/12 06:00:05;;;;;;;17.38;7.28;;;-8.30;67.20;;;;;;5044453;28;20033;-39
2022/01/12 06:02:31;;;;;;;12.88;6.55;;;-8.20;67.40;;;;;;5044440;28;20037;-41
2022/01/12 06:04:57;;;;;;;17.52;6.60;;;-8.20;67.10;;;;;;5039124;28;20025;-45
2022/01/12 06:07:23;;;;;;;13.82;6.82;;;-8.20;66.90;;;;;;5039122;28;20465;-40
2022/01/12 06:09:48;;;;;;;13.07;5.57;;;-8.20;66.80;;;;;;5038917;28;20063;-39
2022/01/12 06:12:14;;;;;;;19.45;9.15;;;-8.20;66.60;;;;;;5039221;28;20119;-44
2022/01/12 06:14:41;;;;;;;11.00;5.35;;;-8.10;66.50;;;;;;5039256;28;20036;-39
2022/01/12 06:17:08;;;;;;;12.55;5.65;;;-8.20;66.40;;;;;;5049836;28;20041;-39
2022/01/12 06:19:33;;;;;;;22.40;8.40;;;-8.20;66.60;;;;;;5038862;28;20022;-39
2022/01/12 06:21:59;;;;;;;31.70;6.97;;;-8.20;66.60;;;;;;5038561;28;20037;-39
2022/01/12 06:24:25;;;;;;;22.35;8.15;;;-8.20;66.70;;;;;;5038760;28;20057;-39
2022/01/12 06:26:51;;;;;;;13.00;6.45;;;-8.20;66.80;;;;;;5038411;28;20151;-44
2022/01/12 06:31:49;;;;;;;27.65;8.38;;;-8.10;67.30;;;;;;5038676;28;20041;-43
2022/01/12 06:34:15;;;;;;;55.67;13.15;;;-8.10;67.00;;;;;;5038258;28;20029;-41
2022/01/12 06:36:40;;;;;;;21.15;7.40;;;-8.10;67.20;;;;;;5038334;28;20043;-44
2022/01/12 06:39:09;;;;;;;25.15;8.25;;;-8.00;66.90;;;;;;5038295;28;20029;-40
2022/01/12 06:41:39;;;;;;;26.30;7.05;;;-8.00;66.90;;;;;;5038582;28;20029;-44
2022/01/12 06:44:07;;;;;;;20.42;6.60;;;-8.00;67.00;;;;;;5038604;28;20302;-39
2022/01/12 06:46:34;;;;;;;11.38;5.43;;;-8.00;66.90;;;;;;5037738;28;20030;-44
2022/01/12 06:49:01;;;;;;;25.75;9.45;;;-8.00;66.90;;;;;;5037820;28;20081;-40
2022/01/12 06:51:27;;;;;;;41.30;13.95;;;-7.90;66.90;;;;;;5037812;28;20064;-44
2022/01/12 06:53:54;;;;;;;28.00;9.23;;;-7.90;67.00;;;;;;5037055;28;20025;-44
2022/01/12 06:56:20;;;;;;;13.73;6.13;;;-7.90;67.10;;;;;;5037944;28;20112;-44
2022/01/12 06:58:46;;;;;;;25.55;9.57;;;-7.80;67.10;;;;;;5037432;28;20049;-44
2022/01/12 07:01:12;;;;;;;15.57;6.47;;;-7.80;67.10;;;;;;5037291;28;20025;-38
2022/01/12 07:03:38;;;;;;;14.38;6.15;;;-7.80;66.80;;;;;;5038170;28;20029;-40
2022/01/12 07:06:04;;;;;;;19.15;5.90;;;-7.80;66.60;;;;;;5037836;28;20036;-43
2022/01/12 07:08:32;;;;;;;12.57;5.38;;;-7.90;66.20;;;;;;5038084;28;20041;-41
2022/01/12 07:10:58;;;;;;;22.60;7.30;;;-7.90;66.10;;;;;;5037858;28;20029;-40
2022/01/12 07:13:24;;;;;;;10.48;4.40;;;-8.00;66.10;;;;;;5037959;28;20040;-44
2022/01/12 07:15:50;;;;;;;9.70;4.35;;;-8.10;65.70;;;;;;5037758;28;20034;-41
2022/01/12 07:18:16;;;;;;;26.00;6.88;;;-8.10;65.80;;;;;;5037755;28;20364;-41
2022/01/12 07:20:42;;;;;;;19.95;6.57;;;-8.10;66.20;;;;;;5037994;28;20025;-45
2022/01/12 07:23:07;;;;;;;39.63;11.50;;;-8.20;66.20;;;;;;5036560;28;20021;-45
2022/01/12 07:25:33;;;;;;;16.88;5.60;;;-8.20;66.60;;;;;;5037732;28;20031;-40
2022/01/12 07:27:59;;;;;;;20.42;6.55;;;-8.20;66.50;;;;;;5037476;28;20040;-42
2022/01/12 07:30:25;;;;;;;16.02;5.95;;;-8.10;66.80;;;;;;5037533;28;20029;-42
2022/01/12 07:32:51;;;;;;;26.08;9.07;;;-8.20;66.70;;;;;;5037766;28;20033;-46
2022/01/12 07:35:17;;;;;;;15.35;6.60;;;-8.20;66.70;;;;;;5037638;28;20033;-45
2022/01/12 07:37:42;;;;;;;16.35;5.63;;;-8.10;66.90;;;;;;5036256;28;20495;-45
2022/01/12 07:40:08;;;;;;;19.15;5.95;;;-8.10;66.80;;;;;;5037474;28;20032;-41
2022/01/12 07:42:35;;;;;;;13.95;5.38;;;-8.10;66.40;;;;;;5037381;28;20022;-41
2022/01/12 07:45:01;;;;;;;28.10;10.18;;;-8.10;66.60;;;;;;5037433;28;20025;-44
2022/01/12 07:47:31;;;;;;;19.50;8.13;;;-8.00;66.80;;;;;;5039246;28;20041;-44
2022/01/12 07:49:58;;;;;;;13.30;5.75;;;-8.00;66.90;;;;;;5045321;28;20432;-44
2022/01/12 07:52:25;;;;;;;22.38;6.40;;;-8.00;66.80;;;;;;5037362;28;20041;-38
2022/01/12 07:54:51;;;;;;;22.38;8.18;;;-8.00;66.50;;;;;;5037058;28;20037;-44
2022/01/12 07:57:17;;;;;;;15.50;6.32;;;-7.90;66.50;;;;;;5044260;28;20047;-44
2022/01/12 07:59:43;;;;;;;11.30;6.60;;;-7.90;66.80;;;;;;5045291;28;20140;-44
2022/01/12 08:02:10;;;;;;;13.57;5.32;;;-7.90;66.60;;;;;;5036791;28;20037;-44
2022/01/12 08:04:37;;;;;;;14.20;5.25;;;-7.90;66.10;;;;;;5036624;28;20029;-41
2022/01/12 08:07:03;;;;;;;14.00;5.45;;;-7.90;66.10;;;;;;5036811;28;20049;-44
2022/01/12 08:09:30;;;;;;;13.65;5.57;;;-7.80;66.40;;;;;;5036711;28;20075;-43
2022/01/12 08:11:55;;;;;;;13.32;5.28;;;-7.80;66.50;;;;;;5036245;28;20422;-38
2022/01/12 08:14:21;;;;;;;10.23;4.90;;;-7.80;66.30;;;;;;5036465;28;20033;-44
2022/01/12 08:16:47;;;;;;;14.35;5.78;;;-7.80;66.00;;;;;;5036682;28;20037;-40
2022/01/12 08:19:16;;;;;;;15.15;6.40;;;-7.80;65.70;;;;;;5036348;28;20026;-41
2022/01/12 08:21:42;;;;;;;12.55;5.72;;;-7.80;65.70;;;;;;5036616;28;20082;-40
2022/01/12 08:24:09;;;;;;;20.17;6.47;;;-7.80;65.90;;;;;;5036488;28;20408;-36
2022/01/12 08:26:35;;;;;;;18.85;7.68;;;-7.80;65.90;;;;;;5035921;28;20034;-45
2022/01/12 08:29:01;;;;;;;18.02;5.18;;;-7.80;65.90;;;;;;5036643;28;20022;-44
2022/01/12 08:31:27;;;;;;;11.43;5.30;;;-7.70;65.80;;;;;;5035996;28;20114;-39
2022/01/12 08:33:52;;;;;;;15.23;5.57;;;-7.80;64.90;;;;;;5036557;28;20022;-44
2022/01/12 08:36:18;;;;;;;15.70;6.35;;;-7.80;64.80;;;;;;5035935;28;20035;-39
2022/01/12 08:38:44;;;;;;;13.82;6.03;;;-7.90;64.90;;;;;;5036555;28;20261;-44
2022/01/12 08:41:09;;;;;;;15.20;6.85;;;-7.90;64.70;;;;;;5035767;28;20034;-44
2022/01/12 08:43:35;;;;;;;16.33;6.50;;;-8.00;65.10;;;;;;5036138;28;20024;-39
2022/01/12 08:46:01;;;;;;;17.60;5.75;;;-8.00;65.40;;;;;;5035684;28;20073;-41
2022/01/12 08:48:26;;;;;;;13.25;5.38;;;-7.90;65.50;;;;;;5035729;28;20033;-44
2022/01/12 08:50:52;;;;;;;12.27;6.07;;;-7.90;65.50;;;;;;5035945;28;20063;-41
2022/01/12 08:53:18;;;;;;;16.02;5.97;;;-7.90;65.60;;;;;;5035883;28;20361;-40
2022/01/12 08:55:43;;;;;;;18.73;6.18;;;-7.90;65.60;;;;;;5035605;28;20037;-38
2022/01/12 08:58:09;;;;;;;12.77;5.68;;;-7.90;65.40;;;;;;5035757;28;20117;-44
2022/01/12 09:00:35;;;;;;;10.07;5.53;;;-7.90;65.00;;;;;;5035810;28;20029;-39
2022/01/12 09:03:02;;;;;;;10.77;5.25;;;-7.90;65.10;;;;;;5036039;28;20021;-43
2022/01/12 09:05:28;;;;;;;11.95;5.55;;;-7.90;64.90;;;;;;5035832;28;20407;-38
2022/01/12 09:07:55;;;;;;;11.75;4.60;;;-7.90;64.50;;;;;;5035607;28;20033;-36
2022/01/12 09:10:21;;;;;;;13.25;6.07;;;-8.00;64.60;;;;;;5035099;28;20033;-38
2022/01/12 09:12:47;;;;;;;15.48;5.70;;;-8.00;64.60;;;;;;5046520;28;20033;-44
2022/01/12 09:15:13;;;;;;;15.80;7.53;;;-8.00;65.00;;;;;;5035485;28;20425;-44
2022/01/12 09:17:40;;;;;;;14.27;5.05;;;-8.00;65.10;;;;;;5035891;28;20029;-44
2022/01/12 09:20:08;;;;;;;8.90;4.25;;;-8.00;64.80;;;;;;5034409;28;20317;-44
2022/01/12 09:22:34;;;;;;;10.63;4.97;;;-8.00;64.90;;;;;;5034916;28;20025;-38
2022/01/12 09:25:00;;;;;;;12.63;5.40;;;-8.00;64.80;;;;;;5035671;28;20068;-40
2022/01/12 09:27:25;;;;;;;14.15;5.32;;;-7.90;65.30;;;;;;5035799;28;20037;-39
2022/01/12 09:29:51;;;;;;;12.57;6.32;;;-7.90;64.90;;;;;;5035598;28;20025;-40
2022/01/12 09:32:17;;;;;;;15.82;6.50;;;-7.90;64.70;;;;;;5035610;28;20036;-41
2022/01/12 09:34:43;;;;;;;9.93;5.20;;;-7.80;64.90;;;;;;5035559;28;20406;-44
2022/01/12 09:37:09;;;;;;;11.90;6.10;;;-7.70;65.00;;;;;;5035622;28;20033;-44
2022/01/12 09:39:35;;;;;;;14.70;5.82;;;-7.70;64.80;;;;;;5035417;28;20373;-44
2022/01/12 09:42:02;;;;;;;11.57;5.57;;;-7.70;64.10;;;;;;5035120;28;20029;-41
2022/01/12 09:44:37;;;;;;;13.48;5.28;;;-7.70;64.10;;;;;;5035215;28;20029;-44
2022/01/12 09:47:05;;;;;;;12.93;6.07;;;-7.70;64.30;;;;;;5035617;28;20112;-39
2022/01/12 09:49:31;;;;;;;17.70;5.65;;;-7.70;64.40;;;;;;5035022;28;20526;-44
2022/01/12 09:51:58;;;;;;;11.27;5.03;;;-7.70;64.60;;;;;;5035494;28;20061;-44
2022/01/12 09:54:26;;;;;;;11.90;5.28;;;-7.60;64.60;;;;;;5035358;28;20030;-44
2022/01/12 09:56:52;;;;;;;13.63;6.07;;;-7.60;63.80;;;;;;5035080;28;20034;-40
2022/01/12 09:59:17;;;;;;;10.55;5.32;;;-7.60;63.80;;;;;;5035422;28;20083;-40
2022/01/12 10:01:45;;;;;;;11.88;5.38;;;-7.50;64.20;;;;;;5035110;28;20026;-37
2022/01/12 10:04:16;;;;;;;12.57;6.05;;;-7.50;64.80;;;;;;5035278;28;20064;-44
2022/01/12 10:06:50;;;;;;;11.93;5.35;;;-7.50;64.40;;;;;;5035297;28;20021;-38
2022/01/12 10:09:17;;;;;;;16.40;5.15;;;-7.50;64.30;;;;;;5035166;28;20026;-44
2022/01/12 10:11:54;;;;;;;10.52;4.95;;;-7.40;64.50;;;;;;5035151;28;20338;-36
2022/01/12 10:14:20;;;;;;;10.73;4.70;;;-7.40;64.20;;;;;;5035149;28;20144;-39
2022/01/12 10:16:54;;;;;;;38.78;19.27;;;-7.40;64.30;;;;;;5035007;28;20048;-40
2022/01/12 10:19:29;;;;;;;12.60;5.57;;;-7.40;64.30;;;;;;5047829;28;20041;-43
2022/01/12 10:21:58;;;;;;;12.80;5.45;;;-7.30;64.50;;;;;;5041804;28;20033;-39
2022/01/12 10:24:24;;;;;;;9.63;3.83;;;-7.30;64.10;;;;;;5041024;28;20029;-43
2022/01/12 10:26:51;;;;;;;14.55;4.53;;;-7.30;63.60;;;;;;5037642;28;20433;-38
2022/01/12 10:29:20;;;;;;;8.75;4.22;;;-7.30;63.60;;;;;;5034802;28;20026;-43
2022/01/12 10:31:59;;;;;;;10.90;4.65;;;-7.30;63.40;;;;;;5042605;28;20030;-43
2022/01/12 10:34:46;;;;;;;6.97;4.07;;;-7.30;63.50;;;;;;5036497;28;20362;-36
2022/01/12 10:37:15;;;;;;;9.15;4.93;;;-7.30;62.70;;;;;;5057465;28;20025;-39
2022/01/12 10:39:43;;;;;;;14.82;4.60;;;-7.30;63.00;;;;;;5055354;28;20112;-36
2022/01/12 10:42:11;;;;;;;8.85;4.53;;;-7.30;63.00;;;;;;5058520;28;20363;-38
2022/01/12 10:44:42;;;;;;;13.95;4.97;;;-7.30;63.30;;;;;;5057849;28;20024;-36
2022/01/12 10:47:29;;;;;;;8.35;3.72;;;-7.20;63.60;;;;;;5058088;28;20108;-43
2022/01/12 10:49:55;;;;;;;9.70;4.05;;;-7.30;62.60;;;;;;5057335;28;20087;-43
2022/01/12 10:52:47;;;;;;;9.95;4.57;;;-7.30;62.80;;;;;;5056568;28;20056;-43
2022/01/12 10:55:14;;;;;;;12.70;5.20;;;-7.30;62.90;;;;;;5057941;28;20283;-43
2022/01/12 10:57:44;;;;;;;10.43;4.20;;;-7.30;62.50;;;;;;5057998;28;20064;-43
2022/01/12 11:00:19;;;;;;;9.45;4.22;;;-7.30;62.10;;;;;;5058034;28;20033;-39
2022/01/12 11:02:56;;;;;;;7.70;4.03;;;-7.30;61.80;;;;;;5057669;28;20029;-39
2022/01/12 11:05:25;;;;;;;11.25;4.78;;;-7.30;61.90;;;;;;5057282;28;20021;-44
2022/01/12 11:07:52;;;;;;;8.23;4.30;;;-7.30;62.10;;;;;;5057320;28;20051;-43
2022/01/12 11:10:20;;;;;;;9.23;4.60;;;-7.30;62.10;;;;;;5057631;28;20344;-40
2022/01/12 11:12:48;;;;;;;7.20;4.10;;;-7.40;61.60;;;;;;5057552;28;20112;-43
2022/01/12 11:15:19;;;;;;;6.65;3.28;;;-7.40;61.80;;;;;;5057014;28;20535;-43
2022/01/12 11:17:47;;;;;;;8.63;4.03;;;-7.40;61.60;;;;;;5057078;28;20033;-43
2022/01/12 11:20:27;;;;;;;9.30;4.18;;;-7.40;62.50;;;;;;5057678;28;20017;-39
2022/01/12 11:23:13;;;;;;;9.18;4.43;;;-7.40;61.90;;;;;;5057680;28;20036;-43
2022/01/12 11:25:52;;;;;;;10.27;4.50;;;-7.40;62.30;;;;;;5056754;28;20095;-39
2022/01/12 11:28:35;;;;;;;6.85;3.70;;;-7.40;61.80;;;;;;5056761;28;20033;-43
2022/01/12 11:31:02;;;;;;;10.80;4.90;;;-7.40;61.40;;;;;;5056963;28;20051;-43
2022/01/12 11:33:31;;;;;;;18.98;7.22;;;-7.40;60.90;;;;;;5057376;28;20036;-43
2022/01/12 11:36:04;;;;;;;10.13;4.40;;;-7.50;60.40;;;;;;5056815;28;20333;-32
2022/01/12 11:38:34;;;;;;;13.68;5.90;;;-7.50;60.70;;;;;;5056841;28;20033;-32
2022/01/12 11:41:14;;;;;;;12.63;4.82;;;-7.50;61.10;;;;;;5056906;28;20041;-32
2022/01/12 11:43:57;;;;;;;9.10;4.10;;;-7.50;61.50;;;;;;5056788;28;20033;-41
2022/01/12 11:46:26;;;;;;;8.65;4.25;;;-7.50;60.70;;;;;;5056133;28;20320;-39
2022/01/12 11:48:58;;;;;;;10.00;4.72;;;-7.50;60.50;;;;;;5056481;28;20052;-43
2022/01/12 11:51:34;;;;;;;9.43;4.38;;;-7.50;61.00;;;;;;5056475;28;20041;-39
2022/01/12 11:54:09;;;;;;;9.93;4.50;;;-7.50;60.40;;;;;;5056692;28;20078;-42
2022/01/12 11:56:37;;;;;;;16.02;6.55;;;-7.50;60.20;;;;;;5056964;28;20040;-46
2022/01/12 11:59:07;;;;;;;14.90;6.05;;;-7.50;60.30;;;;;;5056708;28;20065;-37
2022/01/12 12:01:40;;;;;;;10.95;5.05;;;-7.50;60.40;;;;;;5056270;28;20060;-44
2022/01/12 12:04:08;;;;;;;14.02;6.00;;;-7.50;60.30;;;;;;5044720;28;20341;-44
2022/01/12 12:06:35;;;;;;;10.98;4.50;;;-7.50;60.00;;;;;;5036047;28;20064;-39
2022/01/12 12:09:09;;;;;;;10.20;4.88;;;-7.50;60.00;;;;;;5036177;28;20041;-38
2022/01/12 12:11:34;;;;;;;10.13;4.40;;;-7.60;59.90;;;;;;5036522;28;20060;-39
2022/01/12 12:14:06;;;;;;;11.82;5.50;;;-7.60;59.70;;;;;;5036453;28;20045;-40
2022/01/12 12:16:34;;;;;;;10.65;4.90;;;-7.70;59.70;;;;;;5036380;28;20160;-44
2022/01/12 12:19:04;;;;;;;9.80;4.22;;;-7.80;59.70;;;;;;5036069;28;20037;-44
2022/01/12 12:21:32;;;;;;;10.60;4.75;;;-7.80;60.00;;;;;;5036328;28;20037;-40
2022/01/12 12:24:15;;;;;;;9.80;4.65;;;-7.80;60.40;;;;;;5035988;28;20037;-40
2022/01/12 12:26:46;;;;;;;14.73;6.35;;;-7.80;60.40;;;;;;5036271;28;20302;-40
2022/01/12 12:29:17;;;;;;;18.38;6.70;;;-7.90;60.40;;;;;;5036062;28;20033;-40
2022/01/12 12:31:47;;;;;;;13.07;5.22;;;-7.90;60.80;;;;;;5036567;28;20057;-40
2022/01/12 12:34:14;;;;;;;11.65;5.22;;;-7.80;60.80;;;;;;5035845;28;20434;-40
2022/01/12 12:36:40;;;;;;;10.63;4.97;;;-7.80;61.00;;;;;;5036481;28;20034;-42
2022/01/12 12:39:14;;;;;;;9.75;4.30;;;-7.80;61.10;;;;;;5036055;28;20337;-36
2022/01/12 12:41:45;;;;;;;10.25;5.30;;;-7.90;60.80;;;;;;5035952;28;20117;-41
2022/01/12 12:44:28;;;;;;;;;;;-7.90;61.60;;;;;;5036365;28;20134;-45
2022/01/12 12:47:08;;;;;;;10.85;4.88;;;-7.90;61.40;;;;;;5035870;28;19912;-45
2022/01/12 12:49:47;;;;;;;13.57;6.07;;;-8.00;61.10;;;;;;5035320;28;20442;-36
2022/01/12 12:52:30;;;;;;;17.85;7.22;;;-8.00;61.30;;;;;;5036087;28;20029;-37
2022/01/12 12:55:03;;;;;;;20.30;7.45;;;-8.00;61.00;;;;;;5035847;28;20044;-45
2022/01/12 12:57:29;;;;;;;19.85;6.22;;;-8.10;60.10;;;;;;5035109;28;20041;-45
2022/01/12 13:00:30;;;;;;;23.35;10.73;;;-8.30;59.60;;;;;;5035950;28;20029;-36
2022/01/12 13:02:58;;;;;;;9.30;4.72;;;-8.40;60.00;;;;;;5043574;28;20043;-42
2022/01/12 13:05:27;;;;;;;18.10;6.68;;;-8.40;59.90;;;;;;5046246;28;20063;-37
2022/01/12 13:07:53;;;;;;;18.52;6.55;;;-8.50;59.90;;;;;;5037148;28;20053;-41
2022/01/12 13:10:22;;;;;;;23.80;7.40;;;-8.50;60.00;;;;;;5035749;28;20029;-42
2022/01/12 13:12:53;;;;;;;22.20;6.38;;;-8.60;59.90;;;;;;5035970;28;20116;-41
2022/01/12 13:15:30;;;;;;;38.30;7.70;;;-8.60;60.00;;;;;;5035932;28;20156;-44
2022/01/12 13:18:17;;;;;;;16.48;6.22;;;-8.70;60.20;;;;;;5035333;28;20064;-45
2022/01/12 13:23:42;;;;;;;13.80;5.22;;;-8.70;60.60;;;;;;5035537;28;20087;-44
2022/01/12 13:26:11;;;;;;;17.83;6.57;;;-8.70;60.70;;;;;;5035284;28;20029;-44
2022/01/12 13:28:38;;;;;;;11.45;5.10;;;-8.80;60.70;;;;;;5035286;28;20038;-42
2022/01/12 13:31:09;;;;;;;19.35;8.45;;;-8.70;60.70;;;;;;5035204;28;20421;-41
2022/01/12 13:33:40;;;;;;;;;;;-8.70;60.80;;;;;;5035612;28;20041;-38
2022/01/12 13:36:17;;;;;;;10.45;4.75;;;-8.80;60.50;;;;;;5035233;28;19912;-39
2022/01/12 13:38:47;;;;;;;16.05;5.05;;;-8.80;60.40;;;;;;5035295;28;20033;-40
2022/01/12 13:41:15;;;;;;;12.63;4.82;;;-8.80;60.30;;;;;;5035259;28;20044;-44
2022/01/12 13:43:44;;;;;;;10.57;4.75;;;-8.80;60.20;;;;;;5035450;28;20048;-44
2022/01/12 13:46:15;;;;;;;12.93;4.32;;;-8.80;60.80;;;;;;5035205;28;20112;-41
2022/01/12 13:49:07;;;;;;;14.82;5.13;;;-8.90;59.90;;;;;;5035495;28;20058;-40
2022/01/12 13:51:37;;;;;;;10.73;5.03;;;-8.90;60.00;;;;;;5035274;28;20108;-44
2022/01/12 13:54:11;;;;;;;15.23;6.95;;;-9.00;60.00;;;;;;5046947;28;20249;-44
2022/01/12 13:56:42;;;;;;;12.60;5.78;;;-9.00;60.10;;;;;;5035051;28;20041;-37
2022/01/12 13:59:10;;;;;;;10.82;5.20;;;-9.10;60.30;;;;;;5035318;28;20357;-44
2022/01/12 14:01:39;;;;;;;17.08;6.18;;;-9.10;60.50;;;;;;5034784;28;20323;-44
2022/01/12 14:06:46;;;;;;;26.00;8.27;;;-9.20;60.20;;;;;;5042582;28;20070;-38
2022/01/12 14:09:30;;;;;;;22.83;9.02;;;-9.20;60.40;;;;;;5041156;28;20418;-37
2022/01/12 14:12:06;;;;;;;20.08;7.38;;;-9.20;60.30;;;;;;5048814;28;20071;-41
2022/01/12 14:14:32;;;;;;;18.27;8.02;;;-9.30;60.60;;;;;;5047919;28;20026;-40
2022/01/12 14:16:58;;;;;;;22.08;8.07;;;-9.30;60.90;;;;;;5046494;28;20112;-40
2022/01/12 14:19:23;;;;;;;32.58;9.07;;;-9.20;60.90;;;;;;5048338;28;20025;-38
2022/01/12 14:21:57;;;;;;;13.65;6.43;;;-9.30;60.80;;;;;;5047466;28;20426;-39
2022/01/12 14:24:23;;;;;;;25.15;9.52;;;-9.30;60.80;;;;;;5046357;28;20076;-37